sensor_id;sensor_type;location;lat;lon;timestamp;pressure;altitude;pressure_sealevel;temperature;humidity
23166;BME280;11751;42.700;24.170;2022-08-21T00:01:24;93416.75;;;19.97;nan
23166;BME280;11751;42.700;24.170;2022-08-21T00:03:50;93418.31;;;20.00;nan
23166;BME280;11751;42.700;24.170;2022-08-21T00:06:16;93413.16;;;19.83;nan
23166;BME280;11751;42.700;24.170;2022-08-21T00:08:42;93405.28;;;19.81;nan
23166;BME280;11751;42.700;24.170;2022-08-21T00:11:08;93400.94;;;19.94;nan
23166;BME280;11751;42.700;24.170;2022-08-21T00:13:34;93385.88;;;19.91;nan
23166;BME280;11751;42.700;24.170;2022-08-21T00:16:00;93390.84;;;19.91;nan
23166;BME280;11751;42.700;24.170;2022-08-21T00:18:26;93399.44;;;19.93;nan
23166;BME280;11751;42.700;24.170;2022-08-21T00:20:52;93400.34;;;19.95;nan
23166;BME280;11751;42.700;24.170;2022-08-21T00:23:17;93395.47;;;19.98;nan
23166;BME280;11751;42.700;24.170;2022-08-21T00:25:43;93390.44;;;19.96;nan
23166;BME280;11751;42.700;24.170;2022-08-21T00:28:10;93393.38;;;19.85;nan
23166;BME280;11751;42.700;24.170;2022-08-21T00:30:36;93401.59;;;19.79;nan
23166;BME280;11751;42.700;24.170;2022-08-21T00:33:03;93404.97;;;19.76;nan
23166;BME280;11751;42.700;24.170;2022-08-21T00:35:35;93413.81;;;19.68;nan
23166;BME280;11751;42.700;24.170;2022-08-21T00:38:02;93401.41;;;19.75;nan
23166;BME280;11751;42.700;24.170;2022-08-21T00:40:36;93412.03;;;19.75;nan
23166;BME280;11751;42.700;24.170;2022-08-21T00:43:07;93418.25;;;19.71;nan
23166;BME280;11751;42.700;24.170;2022-08-21T00:45:33;93424.34;;;19.79;nan
23166;BME280;11751;42.700;24.170;2022-08-21T00:47:59;93432.97;;;19.81;nan
23166;BME280;11751;42.700;24.170;2022-08-21T00:50:29;93437.28;;;19.82;nan
23166;BME280;11751;42.700;24.170;2022-08-21T00:52:56;93428.75;;;19.82;nan
23166;BME280;11751;42.700;24.170;2022-08-21T00:55:23;93433.41;;;19.62;nan
23166;BME280;11751;42.700;24.170;2022-08-21T00:57:52;93428.03;;;19.68;nan
23166;BME280;11751;42.700;24.170;2022-08-21T01:00:27;93436.22;;;19.76;nan
23166;BME280;11751;42.700;24.170;2022-08-21T01:02:54;93440.41;;;19.88;nan
23166;BME280;11751;42.700;24.170;2022-08-21T01:05:20;93440.31;;;19.86;nan
23166;BME280;11751;42.700;24.170;2022-08-21T01:07:46;93422.09;;;19.77;nan
23166;BME280;11751;42.700;24.170;2022-08-21T01:10:12;93425.41;;;19.45;nan
23166;BME280;11751;42.700;24.170;2022-08-21T01:12:38;93427.53;;;19.31;nan
23166;BME280;11751;42.700;24.170;2022-08-21T01:15:05;93422.69;;;19.34;nan
23166;BME280;11751;42.700;24.170;2022-08-21T01:17:31;93414.69;;;19.30;nan
23166;BME280;11751;42.700;24.170;2022-08-21T01:19:58;93423.75;;;19.40;nan
23166;BME280;11751;42.700;24.170;2022-08-21T01:22:24;93424.88;;;19.35;nan
23166;BME280;11751;42.700;24.170;2022-08-21T01:24:49;93421.97;;;19.33;nan
23166;BME280;11751;42.700;24.170;2022-08-21T01:27:15;93413.53;;;19.35;nan
23166;BME280;11751;42.700;24.170;2022-08-21T01:32:10;93413.28;;;19.04;nan
23166;BME280;11751;42.700;24.170;2022-08-21T01:34:39;93419.50;;;19.14;nan
23166;BME280;11751;42.700;24.170;2022-08-21T01:37:05;93420.41;;;19.05;nan
23166;BME280;11751;42.700;24.170;2022-08-21T01:39:31;93421.59;;;19.00;nan
23166;BME280;11751;42.700;24.170;2022-08-21T01:41:57;93416.97;;;18.93;nan
23166;BME280;11751;42.700;24.170;2022-08-21T01:44:23;93429.31;;;19.11;nan
23166;BME280;11751;42.700;24.170;2022-08-21T01:46:50;93419.31;;;19.10;nan
23166;BME280;11751;42.700;24.170;2022-08-21T01:49:16;93428.75;;;19.01;nan
23166;BME280;11751;42.700;24.170;2022-08-21T01:51:42;93420.53;;;19.07;nan
23166;BME280;11751;42.700;24.170;2022-08-21T01:54:07;93426.06;;;19.17;nan
23166;BME280;11751;42.700;24.170;2022-08-21T01:56:42;93427.00;;;19.21;nan
23166;BME280;11751;42.700;24.170;2022-08-21T01:59:08;93411.09;;;19.16;nan
23166;BME280;11751;42.700;24.170;2022-08-21T02:01:34;93412.72;;;18.94;nan
23166;BME280;11751;42.700;24.170;2022-08-21T02:04:00;93422.25;;;19.12;nan
23166;BME280;11751;42.700;24.170;2022-08-21T02:06:26;93418.22;;;18.90;nan
23166;BME280;11751;42.700;24.170;2022-08-21T02:08:51;93429.31;;;18.87;nan
23166;BME280;11751;42.700;24.170;2022-08-21T02:11:17;93430.81;;;18.88;nan
23166;BME280;11751;42.700;24.170;2022-08-21T02:13:43;93431.31;;;18.71;nan
23166;BME280;11751;42.700;24.170;2022-08-21T02:16:09;93436.75;;;18.67;nan
23166;BME280;11751;42.700;24.170;2022-08-21T02:18:35;93442.63;;;18.71;nan
23166;BME280;11751;42.700;24.170;2022-08-21T02:21:00;93456.56;;;18.91;nan
23166;BME280;11751;42.700;24.170;2022-08-21T02:23:26;93455.41;;;18.96;nan
23166;BME280;11751;42.700;24.170;2022-08-21T02:25:51;93464.25;;;19.02;nan
23166;BME280;11751;42.700;24.170;2022-08-21T02:28:17;93465.63;;;19.01;nan
23166;BME280;11751;42.700;24.170;2022-08-21T02:30:46;93464.78;;;18.99;nan
23166;BME280;11751;42.700;24.170;2022-08-21T02:33:12;93465.94;;;19.07;nan
23166;BME280;11751;42.700;24.170;2022-08-21T02:35:39;93478.66;;;19.06;nan
23166;BME280;11751;42.700;24.170;2022-08-21T02:38:09;93480.50;;;19.13;nan
23166;BME280;11751;42.700;24.170;2022-08-21T02:40:37;93481.28;;;19.02;nan
23166;BME280;11751;42.700;24.170;2022-08-21T02:43:04;93481.50;;;19.06;nan
23166;BME280;11751;42.700;24.170;2022-08-21T02:45:30;93487.06;;;19.04;nan
23166;BME280;11751;42.700;24.170;2022-08-21T02:48:00;93489.09;;;19.15;nan
23166;BME280;11751;42.700;24.170;2022-08-21T02:50:29;93475.81;;;19.06;nan
23166;BME280;11751;42.700;24.170;2022-08-21T02:52:55;93485.91;;;19.09;nan
23166;BME280;11751;42.700;24.170;2022-08-21T02:55:23;93480.38;;;19.11;nan
23166;BME280;11751;42.700;24.170;2022-08-21T02:57:51;93476.06;;;19.10;nan
23166;BME280;11751;42.700;24.170;2022-08-21T03:00:17;93471.41;;;19.03;nan
23166;BME280;11751;42.700;24.170;2022-08-21T03:02:43;93478.34;;;19.00;nan
23166;BME280;11751;42.700;24.170;2022-08-21T03:05:13;93482.63;;;18.88;nan
23166;BME280;11751;42.700;24.170;2022-08-21T03:07:40;93473.31;;;18.74;nan
23166;BME280;11751;42.700;24.170;2022-08-21T03:10:06;93462.72;;;18.75;nan
23166;BME280;11751;42.700;24.170;2022-08-21T03:12:32;93459.78;;;18.73;nan
23166;BME280;11751;42.700;24.170;2022-08-21T03:14:58;93466.81;;;18.47;nan
23166;BME280;11751;42.700;24.170;2022-08-21T03:17:24;93462.25;;;18.67;nan
23166;BME280;11751;42.700;24.170;2022-08-21T03:19:50;93479.06;;;18.63;nan
23166;BME280;11751;42.700;24.170;2022-08-21T03:22:15;93477.47;;;18.60;nan
23166;BME280;11751;42.700;24.170;2022-08-21T03:24:41;93482.91;;;18.56;nan
23166;BME280;11751;42.700;24.170;2022-08-21T03:27:06;93486.56;;;18.45;nan
23166;BME280;11751;42.700;24.170;2022-08-21T03:29:32;93478.50;;;18.28;nan
23166;BME280;11751;42.700;24.170;2022-08-21T03:31:57;93476.22;;;18.38;nan
23166;BME280;11751;42.700;24.170;2022-08-21T03:34:23;93474.97;;;18.41;nan
23166;BME280;11751;42.700;24.170;2022-08-21T03:36:48;93478.16;;;18.47;nan
23166;BME280;11751;42.700;24.170;2022-08-21T03:39:17;93478.28;;;18.49;nan
23166;BME280;11751;42.700;24.170;2022-08-21T03:41:42;93484.69;;;18.13;nan
23166;BME280;11751;42.700;24.170;2022-08-21T03:44:08;93478.50;;;18.28;nan
23166;BME280;11751;42.700;24.170;2022-08-21T03:46:33;93477.97;;;18.31;nan
23166;BME280;11751;42.700;24.170;2022-08-21T03:48:59;93475.88;;;18.32;nan
23166;BME280;11751;42.700;24.170;2022-08-21T03:51:25;93478.28;;;18.24;nan
23166;BME280;11751;42.700;24.170;2022-08-21T03:53:50;93481.44;;;18.30;nan
23166;BME280;11751;42.700;24.170;2022-08-21T03:56:16;93480.09;;;18.31;nan
23166;BME280;11751;42.700;24.170;2022-08-21T03:58:41;93472.66;;;18.37;nan
23166;BME280;11751;42.700;24.170;2022-08-21T04:01:07;93466.59;;;18.43;nan
23166;BME280;11751;42.700;24.170;2022-08-21T04:03:34;93467.28;;;18.55;nan
23166;BME280;11751;42.700;24.170;2022-08-21T04:06:00;93463.75;;;18.68;nan
23166;BME280;11751;42.700;24.170;2022-08-21T04:08:25;93466.19;;;18.73;nan
23166;BME280;11751;42.700;24.170;2022-08-21T04:10:54;93463.97;;;18.72;nan
23166;BME280;11751;42.700;24.170;2022-08-21T04:13:21;93465.41;;;18.59;nan
23166;BME280;11751;42.700;24.170;2022-08-21T04:15:47;93463.00;;;18.67;nan
23166;BME280;11751;42.700;24.170;2022-08-21T04:18:13;93467.72;;;18.63;nan
23166;BME280;11751;42.700;24.170;2022-08-21T04:20:39;93462.22;;;18.78;nan
23166;BME280;11751;42.700;24.170;2022-08-21T04:23:06;93458.97;;;18.84;nan
23166;BME280;11751;42.700;24.170;2022-08-21T04:25:31;93463.59;;;18.90;nan
23166;BME280;11751;42.700;24.170;2022-08-21T04:27:57;93458.56;;;18.89;nan
23166;BME280;11751;42.700;24.170;2022-08-21T04:30:24;93457.63;;;18.98;nan
23166;BME280;11751;42.700;24.170;2022-08-21T04:32:50;93460.25;;;19.07;nan
23166;BME280;11751;42.700;24.170;2022-08-21T04:35:19;93461.00;;;19.08;nan
23166;BME280;11751;42.700;24.170;2022-08-21T04:37:44;93450.84;;;19.16;nan
23166;BME280;11751;42.700;24.170;2022-08-21T04:40:12;93462.63;;;19.24;nan
23166;BME280;11751;42.700;24.170;2022-08-21T04:42:53;93456.94;;;19.11;nan
23166;BME280;11751;42.700;24.170;2022-08-21T04:45:25;93449.88;;;19.12;nan
23166;BME280;11751;42.700;24.170;2022-08-21T04:47:52;93450.31;;;19.20;nan
23166;BME280;11751;42.700;24.170;2022-08-21T04:50:18;93450.44;;;19.22;nan
23166;BME280;11751;42.700;24.170;2022-08-21T04:52:44;93450.16;;;19.04;nan
23166;BME280;11751;42.700;24.170;2022-08-21T04:55:11;93454.69;;;19.09;nan
23166;BME280;11751;42.700;24.170;2022-08-21T04:57:37;93449.59;;;19.19;nan
23166;BME280;11751;42.700;24.170;2022-08-21T05:00:05;93459.59;;;19.34;nan
23166;BME280;11751;42.700;24.170;2022-08-21T05:02:31;93452.03;;;19.52;nan
23166;BME280;11751;42.700;24.170;2022-08-21T05:04:58;93454.97;;;19.54;nan
23166;BME280;11751;42.700;24.170;2022-08-21T05:07:26;93450.34;;;19.47;nan
23166;BME280;11751;42.700;24.170;2022-08-21T05:09:53;93451.59;;;19.57;nan
23166;BME280;11751;42.700;24.170;2022-08-21T05:12:19;93456.31;;;19.66;nan
23166;BME280;11751;42.700;24.170;2022-08-21T05:14:44;93453.38;;;19.64;nan
23166;BME280;11751;42.700;24.170;2022-08-21T05:17:10;93448.97;;;19.61;nan
23166;BME280;11751;42.700;24.170;2022-08-21T05:19:36;93452.41;;;19.73;nan
23166;BME280;11751;42.700;24.170;2022-08-21T05:22:01;93448.19;;;19.87;nan
23166;BME280;11751;42.700;24.170;2022-08-21T05:24:28;93455.06;;;19.96;nan
23166;BME280;11751;42.700;24.170;2022-08-21T05:26:53;93450.00;;;19.81;nan
23166;BME280;11751;42.700;24.170;2022-08-21T05:29:19;93449.47;;;19.84;nan
23166;BME280;11751;42.700;24.170;2022-08-21T05:31:46;93457.16;;;19.82;nan
23166;BME280;11751;42.700;24.170;2022-08-21T05:34:12;93450.00;;;19.81;nan
23166;BME280;11751;42.700;24.170;2022-08-21T05:36:38;93446.97;;;19.77;nan
23166;BME280;11751;42.700;24.170;2022-08-21T05:39:03;93446.84;;;19.75;nan
23166;BME280;11751;42.700;24.170;2022-08-21T05:41:29;93454.22;;;19.80;nan
23166;BME280;11751;42.700;24.170;2022-08-21T05:43:54;93450.00;;;19.81;nan
23166;BME280;11751;42.700;24.170;2022-08-21T05:46:20;93451.34;;;19.93;nan
23166;BME280;11751;42.700;24.170;2022-08-21T05:48:45;93453.56;;;19.95;nan
23166;BME280;11751;42.700;24.170;2022-08-21T05:51:13;93447.69;;;19.91;nan
23166;BME280;11751;42.700;24.170;2022-08-21T05:53:40;93440.63;;;19.92;nan
23166;BME280;11751;42.700;24.170;2022-08-21T05:56:07;93443.38;;;20.03;nan
23166;BME280;11751;42.700;24.170;2022-08-21T05:58:34;93436.09;;;20.00;nan
23166;BME280;11751;42.700;24.170;2022-08-21T06:01:00;93437.53;;;20.15;nan
23166;BME280;11751;42.700;24.170;2022-08-21T06:03:30;93443.53;;;20.21;nan
23166;BME280;11751;42.700;24.170;2022-08-21T06:05:57;93438.63;;;20.08;nan
23166;BME280;11751;42.700;24.170;2022-08-21T06:08:23;93443.53;;;20.21;nan
23166;BME280;11751;42.700;24.170;2022-08-21T06:10:51;93445.09;;;20.24;nan
23166;BME280;11751;42.700;24.170;2022-08-21T06:13:18;93436.44;;;20.22;nan
23166;BME280;11751;42.700;24.170;2022-08-21T06:15:44;93426.91;;;20.44;nan
23166;BME280;11751;42.700;24.170;2022-08-21T06:18:10;93432.00;;;20.61;nan
23166;BME280;11751;42.700;24.170;2022-08-21T06:20:36;93430.41;;;20.87;nan
23166;BME280;11751;42.700;24.170;2022-08-21T06:23:02;93423.25;;;21.01;nan
23166;BME280;11751;42.700;24.170;2022-08-21T06:25:28;93418.13;;;20.98;nan
23166;BME280;11751;42.700;24.170;2022-08-21T06:28:00;93424.00;;;21.17;nan
23166;BME280;11751;42.700;24.170;2022-08-21T06:30:26;93423.63;;;21.40;nan
23166;BME280;11751;42.700;24.170;2022-08-21T06:32:52;93427.81;;;21.54;nan
23166;BME280;11751;42.700;24.170;2022-08-21T06:35:17;93424.53;;;21.60;nan
23166;BME280;11751;42.700;24.170;2022-08-21T06:37:43;93436.94;;;21.66;nan
23166;BME280;11751;42.700;24.170;2022-08-21T06:40:09;93437.72;;;21.84;nan
23166;BME280;11751;42.700;24.170;2022-08-21T06:42:34;93431.78;;;22.11;nan
23166;BME280;11751;42.700;24.170;2022-08-21T06:45:00;93427.69;;;22.16;nan
23166;BME280;11751;42.700;24.170;2022-08-21T06:47:25;93429.84;;;22.33;nan
23166;BME280;11751;42.700;24.170;2022-08-21T06:49:51;93424.19;;;22.18;nan
23166;BME280;11751;42.700;24.170;2022-08-21T06:52:17;93416.50;;;22.38;nan
23166;BME280;11751;42.700;24.170;2022-08-21T06:54:42;93419.84;;;22.49;nan
23166;BME280;11751;42.700;24.170;2022-08-21T06:57:08;93418.28;;;22.64;nan
23166;BME280;11751;42.700;24.170;2022-08-21T06:59:33;93416.09;;;22.62;nan
23166;BME280;11751;42.700;24.170;2022-08-21T07:01:59;93419.00;;;22.99;nan
23166;BME280;11751;42.700;24.170;2022-08-21T07:04:25;93407.53;;;22.62;nan
23166;BME280;11751;42.700;24.170;2022-08-21T07:06:50;93411.28;;;22.84;nan
23166;BME280;11751;42.700;24.170;2022-08-21T07:09:16;93406.19;;;23.00;nan
23166;BME280;11751;42.700;24.170;2022-08-21T07:11:42;93406.31;;;23.22;nan
23166;BME280;11751;42.700;24.170;2022-08-21T07:14:08;93409.84;;;23.20;nan
23166;BME280;11751;42.700;24.170;2022-08-21T07:16:33;93406.56;;;23.47;nan
23166;BME280;11751;42.700;24.170;2022-08-21T07:18:59;93409.34;;;23.45;nan
23166;BME280;11751;42.700;24.170;2022-08-21T07:21:24;93408.19;;;23.52;nan
23166;BME280;11751;42.700;24.170;2022-08-21T07:23:50;93410.22;;;23.69;nan
23166;BME280;11751;42.700;24.170;2022-08-21T07:26:19;93404.75;;;23.75;nan
23166;BME280;11751;42.700;24.170;2022-08-21T07:28:47;93410.59;;;23.98;nan
23166;BME280;11751;42.700;24.170;2022-08-21T07:31:14;93404.69;;;24.14;nan
23166;BME280;11751;42.700;24.170;2022-08-21T07:33:40;93399.78;;;24.37;nan
23166;BME280;11751;42.700;24.170;2022-08-21T07:36:06;93406.66;;;24.50;nan
23166;BME280;11751;42.700;24.170;2022-08-21T07:38:32;93408.75;;;24.47;nan
23166;BME280;11751;42.700;24.170;2022-08-21T07:40:59;93409.16;;;24.59;nan
23166;BME280;11751;42.700;24.170;2022-08-21T07:43:25;93414.03;;;24.35;nan
23166;BME280;11751;42.700;24.170;2022-08-21T07:45:51;93417.69;;;24.38;nan
23166;BME280;11751;42.700;24.170;2022-08-21T07:48:19;93417.69;;;24.38;nan
23166;BME280;11751;42.700;24.170;2022-08-21T07:50:45;93417.84;;;24.42;nan
23166;BME280;11751;42.700;24.170;2022-08-21T07:53:10;93420.78;;;24.44;nan
23166;BME280;11751;42.700;24.170;2022-08-21T07:55:36;93416.38;;;24.41;nan
23166;BME280;11751;42.700;24.170;2022-08-21T07:58:01;93420.00;;;24.63;nan
23166;BME280;11751;42.700;24.170;2022-08-21T08:00:28;93417.41;;;24.49;nan
23166;BME280;11751;42.700;24.170;2022-08-21T08:02:55;93419.03;;;24.78;nan
23166;BME280;11751;42.700;24.170;2022-08-21T08:05:24;93412.72;;;24.81;nan
23166;BME280;11751;42.700;24.170;2022-08-21T08:07:50;93411.75;;;24.96;nan
23166;BME280;11751;42.700;24.170;2022-08-21T08:10:17;93405.09;;;25.11;nan
23166;BME280;11751;42.700;24.170;2022-08-21T08:12:44;93394.22;;;25.07;nan
23166;BME280;11751;42.700;24.170;2022-08-21T08:15:15;93391.44;;;25.33;nan
23166;BME280;11751;42.700;24.170;2022-08-21T08:17:40;93397.75;;;25.53;nan
23166;BME280;11751;42.700;24.170;2022-08-21T08:20:07;93391.06;;;25.44;nan
23166;BME280;11751;42.700;24.170;2022-08-21T08:22:34;93389.28;;;25.57;nan
23166;BME280;11751;42.700;24.170;2022-08-21T08:25:00;93387.34;;;25.89;nan
23166;BME280;11751;42.700;24.170;2022-08-21T08:27:26;93378.69;;;25.87;nan
23166;BME280;11751;42.700;24.170;2022-08-21T08:29:52;93379.91;;;25.54;nan
23166;BME280;11751;42.700;24.170;2022-08-21T08:32:18;93370.41;;;25.73;nan
23166;BME280;11751;42.700;24.170;2022-08-21T08:34:44;93361.81;;;25.98;nan
23166;BME280;11751;42.700;24.170;2022-08-21T08:37:10;93362.34;;;26.18;nan
23166;BME280;11751;42.700;24.170;2022-08-21T08:39:36;93370.28;;;26.47;nan
23166;BME280;11751;42.700;24.170;2022-08-21T08:42:08;93364.88;;;26.61;nan
23166;BME280;11751;42.700;24.170;2022-08-21T08:44:39;93360.00;;;26.68;nan
23166;BME280;11751;42.700;24.170;2022-08-21T08:47:06;93366.03;;;26.80;nan
23166;BME280;11751;42.700;24.170;2022-08-21T08:49:47;93365.59;;;26.91;nan
23166;BME280;11751;42.700;24.170;2022-08-21T08:52:22;93354.94;;;27.27;nan
23166;BME280;11751;42.700;24.170;2022-08-21T08:57:31;93349.00;;;27.19;nan
23166;BME280;11751;42.700;24.170;2022-08-21T09:00:03;93349.09;;;27.23;nan
23166;BME280;11751;42.700;24.170;2022-08-21T09:02:28;93348.78;;;27.42;nan
23166;BME280;11751;42.700;24.170;2022-08-21T09:04:54;93351.97;;;27.56;nan
23166;BME280;11751;42.700;24.170;2022-08-21T09:07:39;93360.13;;;27.66;nan
23166;BME280;11751;42.700;24.170;2022-08-21T09:10:17;93361.31;;;27.55;nan
23166;BME280;11751;42.700;24.170;2022-08-21T09:20:38;93362.84;;;26.38;nan
23166;BME280;11751;42.700;24.170;2022-08-21T09:23:29;93358.34;;;26.31;nan
23166;BME280;11751;42.700;24.170;2022-08-21T09:26:07;93361.25;;;25.79;nan
23166;BME280;11751;42.700;24.170;2022-08-21T09:28:34;93353.13;;;25.46;nan
23166;BME280;11751;42.700;24.170;2022-08-21T09:31:04;93348.94;;;25.51;nan
23166;BME280;11751;42.700;24.170;2022-08-21T09:33:31;93348.16;;;25.74;nan
23166;BME280;11751;42.700;24.170;2022-08-21T09:35:57;93349.13;;;26.07;nan
23166;BME280;11751;42.700;24.170;2022-08-21T09:38:29;93346.28;;;26.09;nan
23166;BME280;11751;42.700;24.170;2022-08-21T09:41:03;93352.09;;;26.11;nan
23166;BME280;11751;42.700;24.170;2022-08-21T09:43:30;93350.22;;;25.95;nan
23166;BME280;11751;42.700;24.170;2022-08-21T09:48:39;93355.47;;;25.77;nan
23166;BME280;11751;42.700;24.170;2022-08-21T09:51:09;93359.56;;;25.72;nan
23166;BME280;11751;42.700;24.170;2022-08-21T09:53:38;93354.34;;;25.39;nan
23166;BME280;11751;42.700;24.170;2022-08-21T09:59:37;93350.09;;;25.40;nan
23166;BME280;11751;42.700;24.170;2022-08-21T10:02:28;93350.41;;;25.52;nan
23166;BME280;11751;42.700;24.170;2022-08-21T10:05:07;93349.63;;;25.75;nan
23166;BME280;11751;42.700;24.170;2022-08-21T10:07:36;93350.75;;;25.64;nan
23166;BME280;11751;42.700;24.170;2022-08-21T10:10:07;93350.97;;;25.72;nan
23166;BME280;11751;42.700;24.170;2022-08-21T10:12:43;93337.94;;;25.67;nan
23166;BME280;11751;42.700;24.170;2022-08-21T10:15:31;93338.63;;;25.91;nan
23166;BME280;11751;42.700;24.170;2022-08-21T10:20:54;93343.13;;;25.72;nan
23166;BME280;11751;42.700;24.170;2022-08-21T10:31:51;93337.28;;;26.21;nan
23166;BME280;11751;42.700;24.170;2022-08-21T10:37:13;93347.81;;;26.12;nan
23166;BME280;11751;42.700;24.170;2022-08-21T10:48:57;93339.69;;;26.89;nan
23166;BME280;11751;42.700;24.170;2022-08-21T10:51:44;93344.44;;;27.06;nan
23166;BME280;11751;42.700;24.170;2022-08-21T10:56:51;93336.56;;;27.42;nan
23166;BME280;11751;42.700;24.170;2022-08-21T10:59:47;93326.56;;;27.78;nan
23166;BME280;11751;42.700;24.170;2022-08-21T11:02:17;93332.50;;;27.88;nan
23166;BME280;11751;42.700;24.170;2022-08-21T11:04:54;93325.59;;;27.66;nan
23166;BME280;11751;42.700;24.170;2022-08-21T11:07:30;93326.09;;;27.23;nan
23166;BME280;11751;42.700;24.170;2022-08-21T11:10:03;93321.56;;;27.45;nan
23166;BME280;11751;42.700;24.170;2022-08-21T11:12:52;93327.84;;;27.36;nan
23166;BME280;11751;42.700;24.170;2022-08-21T11:15:45;93319.38;;;27.44;nan
23166;BME280;11751;42.700;24.170;2022-08-21T11:21:00;93321.72;;;27.88;nan
23166;BME280;11751;42.700;24.170;2022-08-21T11:24:09;93319.06;;;28.00;nan
23166;BME280;11751;42.700;24.170;2022-08-21T11:29:29;93309.31;;;28.17;nan
23166;BME280;11751;42.700;24.170;2022-08-21T11:42:43;93297.63;;;28.92;nan
23166;BME280;11751;42.700;24.170;2022-08-21T11:45:39;93292.06;;;28.61;nan
23166;BME280;11751;42.700;24.170;2022-08-21T11:48:34;93294.78;;;28.96;nan
23166;BME280;11751;42.700;24.170;2022-08-21T11:51:13;93289.22;;;29.10;nan
23166;BME280;11751;42.700;24.170;2022-08-21T11:53:48;93289.47;;;29.28;nan
23166;BME280;11751;42.700;24.170;2022-08-21T11:56:28;93277.63;;;29.06;nan
23166;BME280;11751;42.700;24.170;2022-08-21T11:59:00;93279.88;;;29.11;nan
23166;BME280;11751;42.700;24.170;2022-08-21T12:01:32;93277.75;;;28.66;nan
23166;BME280;11751;42.700;24.170;2022-08-21T12:04:00;93270.47;;;29.09;nan
23166;BME280;11751;42.700;24.170;2022-08-21T12:06:38;93275.22;;;29.38;nan
23166;BME280;11751;42.700;24.170;2022-08-21T12:09:10;93265.06;;;29.37;nan
23166;BME280;11751;42.700;24.170;2022-08-21T12:11:48;93260.84;;;29.42;nan
23166;BME280;11751;42.700;24.170;2022-08-21T12:14:16;93252.13;;;29.38;nan
23166;BME280;11751;42.700;24.170;2022-08-21T12:16:45;93258.78;;;28.97;nan
23166;BME280;11751;42.700;24.170;2022-08-21T12:19:31;93252.50;;;29.12;nan
23166;BME280;11751;42.700;24.170;2022-08-21T12:24:35;93261.63;;;28.95;nan
23166;BME280;11751;42.700;24.170;2022-08-21T12:30:01;93271.22;;;28.64;nan
23166;BME280;11751;42.700;24.170;2022-08-21T12:32:54;93270.84;;;28.40;nan
23166;BME280;11751;42.700;24.170;2022-08-21T12:35:40;93269.09;;;27.47;nan
23166;BME280;11751;42.700;24.170;2022-08-21T12:40:55;93280.41;;;27.03;nan
23166;BME280;11751;42.700;24.170;2022-08-21T12:43:28;93281.88;;;26.73;nan
23166;BME280;11751;42.700;24.170;2022-08-21T12:45:54;93278.16;;;26.39;nan
23166;BME280;11751;42.700;24.170;2022-08-21T12:48:26;93286.09;;;26.11;nan
23166;BME280;11751;42.700;24.170;2022-08-21T12:50:55;93292.13;;;25.96;nan
23166;BME280;11751;42.700;24.170;2022-08-21T12:53:31;93288.00;;;25.76;nan
23166;BME280;11751;42.700;24.170;2022-08-21T12:56:02;93295.44;;;25.85;nan
23166;BME280;11751;42.700;24.170;2022-08-21T12:58:29;93292.56;;;25.59;nan
23166;BME280;11751;42.700;24.170;2022-08-21T13:01:11;93291.44;;;25.70;nan
23166;BME280;11751;42.700;24.170;2022-08-21T13:03:38;93285.50;;;25.62;nan
23166;BME280;11751;42.700;24.170;2022-08-21T13:06:05;93285.66;;;25.43;nan
23166;BME280;11751;42.700;24.170;2022-08-21T13:08:35;93290.22;;;25.52;nan
23166;BME280;11751;42.700;24.170;2022-08-21T13:11:04;93283.25;;;25.59;nan
23166;BME280;11751;42.700;24.170;2022-08-21T13:13:30;93288.72;;;25.49;nan
23166;BME280;11751;42.700;24.170;2022-08-21T13:15:58;93287.66;;;25.64;nan
23166;BME280;11751;42.700;24.170;2022-08-21T13:18:29;93289.56;;;25.79;nan
23166;BME280;11751;42.700;24.170;2022-08-21T13:21:11;93280.38;;;25.84;nan
23166;BME280;11751;42.700;24.170;2022-08-21T13:23:38;93286.25;;;25.90;nan
23166;BME280;11751;42.700;24.170;2022-08-21T13:26:18;93286.78;;;25.83;nan
23166;BME280;11751;42.700;24.170;2022-08-21T13:28:45;93281.59;;;25.52;nan
23166;BME280;11751;42.700;24.170;2022-08-21T13:31:17;93295.09;;;25.47;nan
23166;BME280;11751;42.700;24.170;2022-08-21T13:33:43;93287.34;;;25.52;nan
23166;BME280;11751;42.700;24.170;2022-08-21T13:36:19;93284.47;;;25.26;nan
23166;BME280;11751;42.700;24.170;2022-08-21T13:38:45;93273.97;;;25.35;nan
23166;BME280;11751;42.700;24.170;2022-08-21T13:41:29;93275.84;;;25.24;nan
23166;BME280;11751;42.700;24.170;2022-08-21T13:44:00;93277.06;;;25.17;nan
23166;BME280;11751;42.700;24.170;2022-08-21T13:46:33;93270.00;;;24.97;nan
23166;BME280;11751;42.700;24.170;2022-08-21T13:49:00;93272.97;;;24.76;nan
23166;BME280;11751;42.700;24.170;2022-08-21T13:51:28;93273.44;;;24.68;nan
23166;BME280;11751;42.700;24.170;2022-08-21T13:53:54;93276.41;;;24.72;nan
23166;BME280;11751;42.700;24.170;2022-08-21T13:56:27;93268.69;;;24.77;nan
23166;BME280;11751;42.700;24.170;2022-08-21T13:58:54;93258.31;;;24.89;nan
23166;BME280;11751;42.700;24.170;2022-08-21T14:01:36;93265.84;;;25.02;nan
23166;BME280;11751;42.700;24.170;2022-08-21T14:06:42;93263.09;;;25.06;nan
23166;BME280;11751;42.700;24.170;2022-08-21T14:09:32;93259.22;;;25.19;nan
23166;BME280;11751;42.700;24.170;2022-08-21T14:12:00;93250.53;;;25.42;nan
23166;BME280;11751;42.700;24.170;2022-08-21T14:14:31;93256.03;;;25.60;nan
23166;BME280;11751;42.700;24.170;2022-08-21T14:17:01;93253.34;;;25.40;nan
23166;BME280;11751;42.700;24.170;2022-08-21T14:19:48;93249.91;;;25.46;nan
23166;BME280;11751;42.700;24.170;2022-08-21T14:25:07;93264.81;;;25.40;nan
23166;BME280;11751;42.700;24.170;2022-08-21T14:27:36;93253.19;;;25.34;nan
23166;BME280;11751;42.700;24.170;2022-08-21T14:30:11;93250.13;;;25.54;nan
23166;BME280;11751;42.700;24.170;2022-08-21T14:32:39;93251.47;;;25.51;nan
23166;BME280;11751;42.700;24.170;2022-08-21T14:35:06;93254.13;;;25.43;nan